Time,TemperatureF,DewpointF,PressureIn,WindDirection,WindDirectionDegrees,WindSpeedMPH,WindSpeedGustMPH,Humidity,HourlyPrecipIn,Conditions,Clouds,dailyrainin,SoftwareType,DateUTC
2013-11-19 00:00:00,79.0,76.0,29.96,North,0,0.0,0.0,91,-99.99,,,-99.99,,2013-11-19 05:00:00,
2013-11-19 00:22:00,79.0,76.0,29.96,North,0,0.0,0.0,91,-99.99,,,-99.99,,2013-11-19 05:22:00,
2013-11-19 00:32:00,79.0,76.0,29.96,North,0,0.0,0.0,91,-99.99,,,-99.99,,2013-11-19 05:32:00,
2013-11-19 00:43:00,79.0,76.0,29.96,North,0,0.0,0.0,91,-99.99,,,-99.99,,2013-11-19 05:43:00,
2013-11-19 00:53:00,79.0,76.0,29.96,North,0,0.0,0.0,91,-99.99,,,-99.99,,2013-11-19 05:53:00,
2013-11-19 01:00:00,79.0,73.0,29.94,North,0,0.0,0.0,82,-99.99,,,-99.99,,2013-11-19 06:00:00,
2013-11-19 01:21:00,79.0,73.0,29.94,North,0,0.0,0.0,82,-99.99,,,-99.99,,2013-11-19 06:21:00,
2013-11-19 01:31:00,79.0,73.0,29.94,North,0,0.0,0.0,82,-99.99,,,-99.99,,2013-11-19 06:31:00,
2013-11-19 01:42:00,79.0,73.0,29.94,North,0,0.0,0.0,82,-99.99,,,-99.99,,2013-11-19 06:42:00,
2013-11-19 01:52:00,79.0,73.0,29.94,North,0,0.0,0.0,82,-99.99,,,-99.99,,2013-11-19 06:52:00,
2013-11-19 02:00:00,77.0,77.0,29.92,North,360,6.0,6.0,97,-99.99,,,-99.99,,2013-11-19 07:00:00,
2013-11-19 02:21:00,77.0,77.0,29.92,North,360,6.0,6.0,97,-99.99,,,-99.99,,2013-11-19 07:21:00,
2013-11-19 02:31:00,77.0,77.0,29.92,North,360,6.0,6.0,97,-99.99,,,-99.99,,2013-11-19 07:31:00,
2013-11-19 02:42:00,77.0,77.0,29.92,North,360,6.0,6.0,97,-99.99,,,-99.99,,2013-11-19 07:42:00,
2013-11-19 02:52:00,77.0,77.0,29.92,North,360,6.0,6.0,97,-99.99,,,-99.99,,2013-11-19 07:52:00,
2013-11-19 03:00:00,76.0,76.0,29.91,North,360,7.0,8.0,98,-99.99,,,-99.99,,2013-11-19 08:00:00,
2013-11-19 03:42:00,76.0,76.0,29.91,North,360,7.0,8.0,98,-99.99,,,-99.99,,2013-11-19 08:42:00,
2013-11-19 03:52:00,76.0,76.0,29.91,North,360,7.0,8.0,98,-99.99,,,-99.99,,2013-11-19 08:52:00,
2013-11-19 04:00:00,76.0,76.0,29.91,North,10,7.0,8.0,97,-99.99,,,-99.99,,2013-11-19 09:00:00,
2013-11-19 04:21:00,76.0,76.0,29.91,North,10,7.0,8.0,97,-99.99,,,-99.99,,2013-11-19 09:21:00,
2013-11-19 04:33:00,76.0,76.0,29.91,North,10,7.0,8.0,97,-99.99,,,-99.99,,2013-11-19 09:33:00,
2013-11-19 04:43:00,76.0,76.0,29.91,North,10,7.0,8.0,97,-99.99,,,-99.99,,2013-11-19 09:43:00,
2013-11-19 04:53:00,76.0,76.0,29.91,North,10,7.0,8.0,97,-99.99,,,-99.99,,2013-11-19 09:53:00,
2013-11-19 05:00:00,77.0,76.0,29.91,North,360,8.0,9.0,97,-99.99,,,-99.99,,2013-11-19 10:00:00,
2013-11-19 05:43:00,77.0,76.0,29.91,North,360,8.0,9.0,97,-99.99,,,-99.99,,2013-11-19 10:43:00,
2013-11-19 05:52:00,77.0,76.0,29.91,North,360,8.0,9.0,97,-99.99,,,-99.99,,2013-11-19 10:52:00,
2013-11-19 06:00:00,77.0,76.0,29.93,North,10,7.0,8.0,97,-99.99,,,-99.99,,2013-11-19 11:00:00,
2013-11-19 06:41:00,77.0,76.0,29.93,North,10,7.0,8.0,97,-99.99,,,-99.99,,2013-11-19 11:41:00,
2013-11-19 06:52:00,77.0,76.0,29.93,North,10,7.0,8.0,97,-99.99,,,-99.99,,2013-11-19 11:52:00,
2013-11-19 07:00:00,77.0,76.0,29.93,North,10,8.0,8.0,97,-99.99,,,-99.99,,2013-11-19 12:00:00,
2013-11-19 07:21:00,77.0,76.0,29.93,North,10,8.0,8.0,97,-99.99,,,-99.99,,2013-11-19 12:21:00,
2013-11-19 07:32:00,77.0,76.0,29.93,North,10,8.0,8.0,97,-99.99,,,-99.99,,2013-11-19 12:32:00,
2013-11-19 07:42:00,77.0,76.0,29.93,North,10,8.0,8.0,97,-99.99,,,-99.99,,2013-11-19 12:42:00,
2013-11-19 07:52:00,77.0,76.0,29.93,North,10,8.0,8.0,97,-99.99,,,-99.99,,2013-11-19 12:52:00,
2013-11-19 08:00:00,77.0,75.0,29.95,NNE,20,3.0,5.0,91,-99.99,,,-99.99,,2013-11-19 13:00:00,
2013-11-19 08:41:00,77.0,75.0,29.95,NNE,20,3.0,5.0,91,-99.99,,,-99.99,,2013-11-19 13:41:00,
2013-11-19 08:52:00,77.0,75.0,29.95,NNE,20,3.0,5.0,91,-99.99,,,-99.99,,2013-11-19 13:52:00,
2013-11-19 09:00:00,78.0,72.0,29.96,North,0,0.0,0.0,82,-99.99,,,-99.99,,2013-11-19 14:00:00,
2013-11-19 09:21:00,78.0,72.0,29.96,North,0,0.0,0.0,82,-99.99,,,-99.99,,2013-11-19 14:21:00,
2013-11-19 09:32:00,78.0,72.0,29.96,North,0,0.0,0.0,82,-99.99,,,-99.99,,2013-11-19 14:32:00,
2013-11-19 09:42:00,78.0,72.0,29.96,North,0,0.0,0.0,82,-99.99,,,-99.99,,2013-11-19 14:42:00,
2013-11-19 09:52:00,78.0,72.0,29.96,North,0,0.0,0.0,82,-99.99,,,-99.99,,2013-11-19 14:52:00,
2013-11-19 10:00:00,78.0,73.0,29.97,North,0,0.0,0.0,83,-99.99,,,-99.99,,2013-11-19 15:00:00,
2013-11-19 10:21:00,78.0,73.0,29.97,North,0,0.0,0.0,83,-99.99,,,-99.99,,2013-11-19 15:21:00,
2013-11-19 10:32:00,78.0,73.0,29.97,North,0,0.0,0.0,83,-99.99,,,-99.99,,2013-11-19 15:32:00,
2013-11-19 10:43:00,78.0,73.0,29.97,North,0,0.0,0.0,83,-99.99,,,-99.99,,2013-11-19 15:43:00,
2013-11-19 10:53:00,78.0,73.0,29.97,North,0,0.0,0.0,83,-99.99,,,-99.99,,2013-11-19 15:53:00,
2013-11-19 11:00:00,78.0,75.0,29.96,North,0,0.0,3.0,88,-99.99,,,-99.99,,2013-11-19 16:00:00,
2013-11-19 11:22:00,78.0,75.0,29.96,North,0,0.0,3.0,88,-99.99,,,-99.99,,2013-11-19 16:22:00,
2013-11-19 11:33:00,78.0,75.0,29.96,North,0,0.0,3.0,88,-99.99,,,-99.99,,2013-11-19 16:33:00,
2013-11-19 11:43:00,78.0,75.0,29.96,North,0,0.0,3.0,88,-99.99,,,-99.99,,2013-11-19 16:43:00,
2013-11-19 11:52:00,78.0,75.0,29.96,North,0,0.0,3.0,88,-99.99,,,-99.99,,2013-11-19 16:52:00,
2013-11-19 12:00:00,79.0,74.0,29.94,North,0,0.0,0.0,84,-99.99,,,-99.99,,2013-11-19 17:00:00,
2013-11-19 12:43:00,79.0,74.0,29.94,North,0,0.0,0.0,84,-99.99,,,-99.99,,2013-11-19 17:43:00,
2013-11-19 12:52:00,79.0,74.0,29.94,North,0,0.0,0.0,84,-99.99,,,-99.99,,2013-11-19 17:52:00,
2013-11-19 13:00:00,78.0,75.0,29.92,North,360,2.0,3.0,88,-99.99,,,-99.99,,2013-11-19 18:00:00,
2013-11-19 13:42:00,78.0,75.0,29.92,North,360,2.0,3.0,88,-99.99,,,-99.99,,2013-11-19 18:42:00,
2013-11-19 13:52:00,78.0,75.0,29.92,North,360,2.0,3.0,88,-99.99,,,-99.99,,2013-11-19 18:52:00,
2013-11-19 17:00:00,79.0,73.0,29.91,North,0,0.0,0.0,81,-99.99,,,-99.99,,2013-11-19 22:00:00,
2013-11-19 17:42:00,79.0,73.0,29.91,North,0,0.0,0.0,81,-99.99,,,-99.99,,2013-11-19 22:42:00,
2013-11-19 17:52:00,79.0,73.0,29.91,North,0,0.0,0.0,81,-99.99,,,-99.99,,2013-11-19 22:52:00,
2013-11-19 18:00:00,78.0,74.0,29.92,North,350,3.0,5.0,86,-99.99,,,-99.99,,2013-11-19 23:00:00,
2013-11-19 18:42:00,78.0,74.0,29.92,North,350,3.0,5.0,86,-99.99,,,-99.99,,2013-11-19 23:42:00,
2013-11-19 18:52:00,78.0,74.0,29.92,North,350,3.0,5.0,86,-99.99,,,-99.99,,2013-11-19 23:52:00,
2013-11-19 19:00:00,77.0,75.0,29.93,North,350,7.0,7.0,93,-99.99,,,-99.99,,2013-11-20 00:00:00,
2013-11-19 19:21:00,77.0,75.0,29.93,North,350,7.0,7.0,93,-99.99,,,-99.99,,2013-11-20 00:21:00,
2013-11-19 19:32:00,77.0,75.0,29.93,North,350,7.0,7.0,93,-99.99,,,-99.99,,2013-11-20 00:32:00,
2013-11-19 19:42:00,77.0,75.0,29.93,North,350,7.0,7.0,93,-99.99,,,-99.99,,2013-11-20 00:42:00,
2013-11-19 19:52:00,77.0,75.0,29.93,North,350,7.0,7.0,93,-99.99,,,-99.99,,2013-11-20 00:52:00,
2013-11-19 20:00:00,78.0,71.0,29.95,NNW,340,5.0,7.0,80,-99.99,,,-99.99,,2013-11-20 01:00:00,
2013-11-19 20:21:00,78.0,71.0,29.95,NNW,340,5.0,7.0,80,-99.99,,,-99.99,,2013-11-20 01:21:00,
2013-11-19 20:31:00,78.0,71.0,29.95,NNW,340,5.0,7.0,80,-99.99,,,-99.99,,2013-11-20 01:31:00,
2013-11-19 20:42:00,78.0,71.0,29.95,NNW,340,5.0,7.0,80,-99.99,,,-99.99,,2013-11-20 01:42:00,
2013-11-19 20:52:00,78.0,71.0,29.95,NNW,340,5.0,7.0,80,-99.99,,,-99.99,,2013-11-20 01:52:00,
2013-11-19 21:00:00,78.0,73.0,29.96,North,10,5.0,6.0,85,-99.99,,,-99.99,,2013-11-20 02:00:00,
2013-11-19 21:42:00,78.0,73.0,29.96,North,10,5.0,6.0,85,-99.99,,,-99.99,,2013-11-20 02:42:00,
2013-11-19 21:52:00,78.0,73.0,29.96,North,10,5.0,6.0,85,-99.99,,,-99.99,,2013-11-20 02:52:00,
2013-11-19 22:00:00,77.0,74.0,29.97,NNE,20,9.0,10.0,90,-99.99,,,-99.99,,2013-11-20 03:00:00,
2013-11-19 22:21:00,77.0,74.0,29.97,NNE,20,9.0,10.0,90,-99.99,,,-99.99,,2013-11-20 03:21:00,
2013-11-19 22:33:00,77.0,74.0,29.97,NNE,20,9.0,10.0,90,-99.99,,,-99.99,,2013-11-20 03:33:00,
2013-11-19 22:43:00,77.0,74.0,29.97,NNE,20,9.0,10.0,90,-99.99,,,-99.99,,2013-11-20 03:43:00,
2013-11-19 22:54:00,77.0,74.0,29.97,NNE,20,9.0,10.0,90,-99.99,,,-99.99,,2013-11-20 03:54:00,
2013-11-19 23:00:00,77.0,75.0,29.96,NNE,20,6.0,7.0,95,-99.99,,,-99.99,,2013-11-20 04:00:00,
2013-11-19 23:23:00,77.0,75.0,29.96,NNE,20,6.0,7.0,95,-99.99,,,-99.99,,2013-11-20 04:23:00,
2013-11-19 23:33:00,77.0,75.0,29.96,NNE,20,6.0,7.0,95,-99.99,,,-99.99,,2013-11-20 04:33:00,
2013-11-19 23:43:00,77.0,75.0,29.96,NNE,20,6.0,7.0,95,-99.99,,,-99.99,,2013-11-20 04:43:00,
2013-11-19 23:52:00,77.0,75.0,29.96,NNE,20,6.0,7.0,95,-99.99,,,-99.99,,2013-11-20 04:52:00,